createdAt,value
2022-11-30T00:00:48.782Z,6.10
2022-11-30T00:03:23.594Z,7.22
2022-11-30T00:05:58.307Z,5.90
2022-11-30T00:08:32.745Z,5.50
2022-11-30T00:11:12.505Z,5.90
2022-11-30T00:13:49.260Z,5.15
2022-11-30T00:16:24.428Z,5.00
2022-11-30T00:18:59.414Z,5.70
2022-11-30T00:21:34.122Z,6.10
2022-11-30T00:24:09.424Z,5.43
2022-11-30T00:26:47.227Z,5.43
2022-11-30T00:29:22.797Z,5.03
2022-11-30T00:31:57.683Z,5.32
2022-11-30T00:34:32.084Z,5.72
2022-11-30T00:37:06.787Z,5.35
2022-11-30T00:39:41.520Z,5.47
2022-11-30T00:42:15.914Z,5.53
2022-11-30T00:44:52.043Z,5.18
2022-11-30T00:47:26.051Z,5.28
2022-11-30T00:52:34.047Z,4.93
2022-11-30T00:55:09.217Z,5.70
2022-11-30T00:57:43.465Z,5.25
2022-11-30T01:00:20.464Z,6.57
2022-11-30T01:02:55.681Z,5.25
2022-11-30T01:05:30.065Z,4.78
2022-11-30T01:08:06.246Z,5.47
2022-11-30T01:10:42.714Z,6.18
2022-11-30T01:13:17.364Z,5.43
2022-11-30T01:15:53.627Z,5.20
2022-11-30T01:18:28.637Z,5.55
2022-11-30T01:21:07.072Z,5.30
2022-11-30T01:23:42.460Z,4.88
2022-11-30T01:26:17.405Z,5.50
2022-11-30T01:28:52.603Z,5.75
2022-11-30T01:31:28.747Z,5.18
2022-11-30T01:34:06.074Z,5.10
2022-11-30T01:36:40.905Z,5.07
2022-11-30T01:39:15.287Z,5.15
2022-11-30T01:44:51.142Z,5.57
2022-11-30T01:47:31.855Z,5.65
2022-11-30T01:50:10.476Z,5.10
2022-11-30T01:52:47.161Z,4.82
2022-11-30T01:55:24.129Z,5.40
2022-11-30T01:58:03.344Z,4.78
2022-11-30T02:00:37.592Z,4.65
2022-11-30T02:03:23.079Z,4.82
2022-11-30T02:05:57.935Z,5.53
2022-11-30T02:08:33.071Z,4.50
2022-11-30T02:11:11.300Z,5.03
2022-11-30T02:13:59.022Z,5.15
2022-11-30T02:16:42.131Z,5.35
2022-11-30T02:19:48.250Z,5.30
2022-11-30T02:22:37.037Z,5.43
2022-11-30T02:25:19.708Z,5.35
2022-11-30T02:28:15.494Z,4.85
2022-11-30T02:30:53.384Z,5.57
2022-11-30T02:33:30.066Z,5.43
2022-11-30T02:36:06.623Z,5.90
2022-11-30T02:38:41.771Z,4.75
2022-11-30T02:41:15.783Z,5.00
2022-11-30T02:43:49.959Z,4.75
2022-11-30T02:46:32.752Z,5.03
2022-11-30T02:49:18.880Z,5.60
2022-11-30T02:51:55.486Z,5.63
2022-11-30T02:54:29.267Z,4.78
2022-11-30T02:59:40.305Z,4.40
2022-11-30T03:02:15.803Z,4.97
2022-11-30T03:04:52.627Z,4.13
2022-11-30T03:07:26.807Z,5.45
2022-11-30T03:10:01.141Z,5.30
2022-11-30T03:12:35.551Z,4.93
2022-11-30T03:15:09.956Z,5.25
2022-11-30T03:17:45.291Z,4.95
2022-11-30T03:20:19.297Z,4.53
2022-11-30T03:22:53.074Z,4.78
2022-11-30T03:28:02.241Z,4.63
2022-11-30T03:30:36.006Z,4.43
2022-11-30T03:35:44.653Z,4.47
2022-11-30T03:40:51.895Z,4.55
2022-11-30T03:45:59.213Z,3.88
2022-11-30T03:51:11.279Z,3.90
2022-11-30T03:53:45.038Z,4.78
2022-11-30T03:58:53.165Z,4.57
2022-11-30T04:01:28.228Z,3.63
2022-11-30T04:04:03.506Z,4.82
2022-11-30T04:06:37.254Z,4.45
2022-11-30T04:11:44.546Z,4.47
2022-11-30T04:16:51.783Z,4.20
2022-11-30T04:22:00.710Z,4.57
2022-11-30T04:27:08.034Z,4.32
2022-11-30T04:32:15.274Z,4.47
2022-11-30T04:37:24.183Z,4.15
2022-11-30T04:42:31.442Z,3.95
2022-11-30T04:45:05.904Z,4.25
2022-11-30T04:47:39.893Z,4.90
2022-11-30T04:50:15.068Z,4.00
2022-11-30T04:52:48.976Z,4.07
2022-11-30T04:55:22.721Z,4.57
2022-11-30T04:57:56.526Z,4.57
2022-11-30T05:00:30.277Z,4.00
2022-11-30T05:03:04.141Z,4.35
2022-11-30T05:05:39.357Z,4.10
2022-11-30T05:08:13.139Z,4.43
2022-11-30T05:13:27.614Z,4.28
2022-11-30T05:16:01.546Z,3.80
2022-11-30T05:18:35.369Z,4.45
2022-11-30T05:23:44.244Z,4.20
2022-11-30T05:28:51.460Z,3.58
2022-11-30T05:33:58.814Z,4.40
2022-11-30T05:39:07.764Z,3.60
2022-11-30T05:41:41.511Z,4.28
2022-11-30T05:46:49.071Z,3.90
2022-11-30T05:49:22.866Z,4.97
2022-11-30T05:54:31.590Z,4.00
2022-11-30T05:59:39.295Z,3.60
2022-11-30T06:04:47.021Z,3.67
2022-11-30T06:07:22.487Z,3.05
2022-11-30T06:09:56.307Z,4.00
2022-11-30T06:15:03.619Z,3.75
2022-11-30T06:22:48.242Z,4.28
2022-11-30T06:25:22.272Z,4.35
2022-11-30T06:30:29.610Z,4.43
2022-11-30T06:35:36.850Z,4.28
2022-11-30T06:40:45.626Z,3.90
2022-11-30T06:43:19.999Z,3.72
2022-11-30T06:45:54.023Z,4.15
2022-11-30T06:48:27.847Z,4.28
2022-11-30T06:53:37.454Z,4.18
2022-11-30T06:56:11.901Z,4.05
2022-11-30T06:58:45.749Z,4.03
2022-11-30T07:03:53.295Z,4.40
2022-11-30T07:06:27.188Z,4.03
2022-11-30T07:09:02.698Z,4.65
2022-11-30T07:11:36.838Z,4.32
2022-11-30T07:14:10.639Z,4.18
2022-11-30T07:19:18.754Z,4.20
2022-11-30T07:21:53.848Z,3.55
2022-11-30T07:24:47.417Z,4.28
2022-11-30T07:27:21.644Z,3.73
2022-11-30T07:29:55.636Z,4.00
2022-11-30T07:35:03.356Z,3.70
2022-11-30T07:37:37.338Z,3.40
2022-11-30T07:40:13.577Z,3.55
2022-11-30T07:42:47.470Z,3.85
2022-11-30T07:45:21.369Z,12.85
2022-11-30T07:50:29.575Z,14.27
2022-11-30T07:53:03.746Z,12.75
2022-11-30T07:55:39.056Z,12.52
2022-11-30T07:58:17.320Z,10.75
2022-11-30T08:00:51.610Z,10.30
2022-11-30T08:03:25.788Z,8.95
2022-11-30T08:06:04.256Z,9.10
2022-11-30T08:08:40.036Z,9.15
2022-11-30T08:11:18.036Z,8.93
2022-11-30T08:13:52.878Z,8.20
2022-11-30T08:16:31.119Z,8.52
2022-11-30T08:19:05.879Z,8.25
2022-11-30T08:21:42.701Z,8.05
2022-11-30T08:24:16.876Z,6.43
2022-11-30T08:26:54.038Z,7.15
2022-11-30T08:29:28.228Z,6.10
2022-11-30T08:32:02.283Z,6.05
2022-11-30T08:34:36.336Z,6.47
2022-11-30T08:37:10.248Z,7.15
2022-11-30T08:39:44.097Z,6.90
2022-11-30T08:42:19.414Z,6.97
2022-11-30T08:44:53.218Z,6.53
2022-11-30T08:50:01.132Z,6.47
2022-11-30T08:52:35.094Z,5.65
2022-11-30T08:55:10.317Z,6.53
2022-11-30T08:57:45.681Z,5.45
2022-11-30T09:00:20.356Z,6.55
2022-11-30T09:02:54.531Z,5.60
2022-11-30T09:05:28.426Z,6.28
2022-11-30T09:10:35.943Z,5.85
2022-11-30T09:15:45.142Z,5.47
2022-11-30T09:18:19.075Z,5.88
2022-11-30T09:20:53.122Z,6.53
2022-11-30T09:26:02.565Z,7.10
2022-11-30T09:28:38.954Z,6.22
2022-11-30T09:31:14.723Z,6.47
2022-11-30T09:33:49.212Z,6.82
2022-11-30T09:36:24.246Z,6.97
2022-11-30T09:38:58.507Z,8.38
2022-11-30T09:42:13.680Z,7.88
2022-11-30T09:44:58.868Z,7.15
2022-11-30T09:47:51.638Z,7.43
2022-11-30T09:50:29.347Z,7.22
2022-11-30T09:53:06.680Z,7.32
2022-11-30T09:55:43.351Z,8.27
2022-11-30T09:58:28.632Z,8.98
2022-11-30T10:01:19.929Z,8.73
2022-11-30T10:03:53.893Z,8.55
2022-11-30T10:09:26.231Z,8.52
2022-11-30T10:12:08.665Z,8.38
2022-11-30T10:15:06.668Z,8.13
2022-11-30T10:17:47.952Z,7.68
2022-11-30T10:20:49.216Z,8.13
2022-11-30T10:23:38.608Z,8.75
2022-11-30T10:26:16.194Z,8.60
2022-11-30T10:28:53.075Z,8.75
2022-11-30T10:31:34.453Z,7.95
2022-11-30T10:34:20.442Z,7.05
2022-11-30T10:37:01.400Z,8.52
2022-11-30T10:39:44.291Z,9.20
2022-11-30T10:42:26.913Z,8.15
2022-11-30T10:45:05.760Z,8.40
2022-11-30T10:47:44.762Z,8.07
2022-11-30T10:50:20.220Z,8.05
2022-11-30T10:52:57.030Z,8.32
2022-11-30T10:55:36.110Z,8.18
2022-11-30T10:58:20.989Z,8.95
2022-11-30T11:01:02.061Z,8.98
2022-11-30T11:03:36.144Z,8.65
2022-11-30T11:06:17.030Z,8.60
2022-11-30T11:08:51.670Z,9.52
2022-11-30T11:11:32.470Z,9.20
2022-11-30T11:14:22.232Z,8.75
2022-11-30T11:16:59.251Z,8.65
2022-11-30T11:19:37.179Z,9.90
2022-11-30T11:22:20.269Z,10.40
2022-11-30T11:24:57.571Z,9.90
2022-11-30T11:27:33.415Z,8.82
2022-11-30T11:30:14.000Z,9.57
2022-11-30T11:33:00.466Z,9.13
2022-11-30T11:35:37.629Z,8.40
2022-11-30T11:38:27.656Z,9.10
2022-11-30T11:41:03.706Z,8.23
2022-11-30T11:43:57.640Z,8.98
2022-11-30T11:46:33.313Z,8.32
2022-11-30T11:49:19.620Z,8.38
2022-11-30T11:52:02.115Z,8.27
2022-11-30T11:54:42.830Z,8.13
2022-11-30T11:57:19.268Z,8.25
2022-11-30T11:59:58.432Z,7.38
2022-11-30T12:02:39.430Z,8.10
2022-11-30T12:05:16.975Z,7.72
2022-11-30T12:08:01.785Z,7.50
2022-11-30T12:10:51.629Z,7.18
2022-11-30T12:13:34.010Z,7.68
2022-11-30T12:16:21.154Z,7.28
2022-11-30T12:19:00.282Z,7.78
2022-11-30T12:21:47.038Z,7.93
2022-11-30T12:24:50.079Z,7.32
2022-11-30T12:27:39.930Z,7.95
2022-11-30T12:30:22.457Z,7.75
2022-11-30T12:33:10.714Z,6.70
2022-11-30T12:35:59.884Z,7.03
2022-11-30T12:38:44.302Z,6.80
2022-11-30T12:41:33.109Z,7.22
2022-11-30T12:44:29.321Z,7.32
2022-11-30T12:47:18.688Z,6.55
2022-11-30T12:50:08.890Z,6.22
2022-11-30T12:52:50.359Z,7.43
2022-11-30T12:55:32.220Z,6.45
2022-11-30T12:58:16.361Z,6.55
2022-11-30T13:03:43.025Z,7.23
2022-11-30T13:06:20.227Z,7.25
2022-11-30T13:09:00.663Z,5.82
2022-11-30T13:11:39.181Z,7.30
2022-11-30T13:14:18.450Z,7.63
2022-11-30T13:17:02.267Z,7.30
2022-11-30T13:19:49.367Z,7.88
2022-11-30T13:22:33.135Z,6.88
2022-11-30T13:25:18.680Z,7.55
2022-11-30T13:27:58.911Z,8.30
2022-11-30T13:30:40.921Z,7.53
2022-11-30T13:33:46.638Z,7.60
2022-11-30T13:36:28.883Z,6.38
2022-11-30T13:39:26.863Z,7.45
2022-11-30T13:42:38.708Z,7.30
2022-11-30T13:45:33.600Z,19.42
2022-11-30T13:48:31.250Z,24.40
2022-11-30T13:51:07.620Z,26.38
2022-11-30T13:53:42.601Z,20.00
2022-11-30T13:56:37.068Z,18.42
2022-11-30T13:59:41.018Z,18.27
2022-11-30T14:02:54.561Z,18.45
2022-11-30T14:05:42.332Z,17.98
2022-11-30T14:08:38.262Z,17.83
2022-11-30T14:11:38.770Z,16.90
2022-11-30T14:14:45.441Z,17.20
2022-11-30T14:17:24.352Z,16.60
2022-11-30T14:20:01.926Z,17.73
2022-11-30T14:22:36.536Z,16.75
2022-11-30T14:25:17.495Z,15.43
2022-11-30T14:27:57.115Z,15.23
2022-11-30T14:30:34.036Z,15.48
2022-11-30T14:33:19.667Z,14.88
2022-11-30T14:35:58.069Z,13.77
2022-11-30T14:38:32.748Z,14.68
2022-11-30T14:41:10.346Z,14.57
2022-11-30T14:44:02.480Z,14.00
2022-11-30T14:46:36.886Z,12.18
2022-11-30T14:49:15.819Z,12.57
2022-11-30T14:51:52.270Z,12.50
2022-11-30T14:54:40.432Z,11.85
2022-11-30T14:57:26.030Z,11.85
2022-11-30T15:00:00.249Z,12.40
2022-11-30T15:02:37.552Z,11.05
2022-11-30T15:05:18.252Z,11.95
2022-11-30T15:07:52.554Z,10.07
2022-11-30T15:10:30.758Z,10.07
2022-11-30T15:13:07.089Z,10.55
2022-11-30T15:15:51.956Z,10.00
2022-11-30T15:18:27.161Z,9.00
2022-11-30T15:21:04.880Z,9.95
2022-11-30T15:23:38.857Z,10.50
2022-11-30T15:26:17.839Z,9.50
2022-11-30T15:28:57.993Z,9.77
2022-11-30T15:31:36.933Z,9.98
2022-11-30T15:34:20.807Z,9.70
2022-11-30T15:36:56.019Z,10.02
2022-11-30T15:39:32.752Z,9.77
2022-11-30T15:42:07.157Z,9.30
2022-11-30T15:44:46.928Z,9.75
2022-11-30T15:47:27.645Z,10.55
2022-11-30T15:50:01.789Z,10.00
2022-11-30T15:52:35.852Z,11.38
2022-11-30T15:55:43.723Z,10.60
2022-11-30T15:58:34.460Z,9.32
2022-11-30T16:01:12.745Z,10.00
2022-11-30T16:04:04.581Z,8.63
2022-11-30T16:06:46.458Z,8.65
2022-11-30T16:09:22.983Z,8.93
2022-11-30T16:11:59.255Z,9.45
2022-11-30T16:14:33.238Z,8.20
2022-11-30T16:17:11.710Z,8.88
2022-11-30T16:19:45.853Z,7.93
2022-11-30T16:22:20.036Z,8.52
2022-11-30T16:24:53.832Z,8.63
2022-11-30T16:30:01.222Z,7.87
2022-11-30T16:32:36.826Z,7.25
2022-11-30T16:35:22.922Z,7.32
2022-11-30T16:37:57.112Z,7.40
2022-11-30T16:40:36.936Z,7.18
2022-11-30T16:43:12.689Z,7.85
2022-11-30T16:45:47.123Z,7.82
2022-11-30T16:48:22.911Z,7.68
2022-11-30T16:50:57.006Z,8.68
2022-11-30T16:53:30.829Z,8.10
2022-11-30T16:58:38.313Z,8.80
2022-11-30T17:01:16.269Z,7.25
2022-11-30T17:03:53.256Z,7.22
2022-11-30T17:06:27.726Z,7.65
2022-11-30T17:09:01.630Z,6.97
2022-11-30T17:11:38.604Z,7.70
2022-11-30T17:14:14.352Z,9.27
2022-11-30T17:16:48.308Z,7.32
2022-11-30T17:19:23.590Z,6.88
2022-11-30T17:21:57.455Z,7.35
2022-11-30T17:24:31.526Z,7.57
2022-11-30T17:27:05.923Z,5.95
2022-11-30T17:29:40.042Z,6.55
2022-11-30T17:32:13.939Z,6.38
2022-11-30T17:34:49.827Z,6.90
2022-11-30T17:37:24.787Z,6.93
2022-11-30T17:39:59.175Z,6.65
2022-11-30T17:42:33.080Z,6.07
2022-11-30T17:45:07.984Z,6.85
2022-11-30T17:47:41.929Z,6.55
2022-11-30T17:50:17.484Z,6.03
2022-11-30T17:52:51.576Z,5.90
2022-11-30T17:55:25.483Z,6.90
2022-11-30T17:58:00.573Z,6.65
2022-11-30T18:00:34.626Z,5.38
2022-11-30T18:03:09.151Z,6.07
2022-11-30T18:05:44.744Z,6.60
2022-11-30T18:08:19.083Z,5.55
2022-11-30T18:10:52.961Z,5.40
2022-11-30T18:13:29.499Z,5.55
2022-11-30T18:16:14.379Z,6.40
2022-11-30T18:18:49.004Z,6.30
2022-11-30T18:21:25.315Z,6.15
2022-11-30T18:23:59.816Z,6.70
2022-11-30T18:26:35.669Z,6.45
2022-11-30T18:29:11.014Z,6.63
2022-11-30T18:31:44.971Z,5.88
2022-11-30T18:34:18.978Z,7.53
2022-11-30T18:36:54.360Z,5.85
2022-11-30T18:39:28.369Z,6.30
2022-11-30T18:42:02.425Z,5.85
2022-11-30T18:44:36.319Z,6.03
2022-11-30T18:49:44.347Z,5.93
2022-11-30T18:52:19.900Z,6.40
2022-11-30T18:54:53.736Z,6.18
2022-11-30T18:57:27.634Z,6.57
2022-11-30T19:02:35.798Z,5.93
2022-11-30T19:05:13.586Z,6.53
2022-11-30T19:07:49.464Z,6.30
2022-11-30T19:10:23.283Z,8.05
2022-11-30T19:15:31.668Z,10.20
2022-11-30T19:18:05.876Z,11.45
2022-11-30T19:20:40.434Z,10.98
2022-11-30T19:23:15.788Z,11.52
2022-11-30T19:25:49.733Z,12.48
2022-11-30T19:28:23.594Z,13.77
2022-11-30T19:30:57.598Z,13.40
2022-11-30T19:33:31.654Z,14.77
2022-11-30T19:36:07.527Z,15.18
2022-11-30T19:38:43.067Z,15.05
2022-11-30T19:41:17.305Z,16.38
2022-11-30T19:44:02.447Z,16.10
2022-11-30T19:46:37.383Z,16.33
2022-11-30T19:49:12.167Z,17.73
2022-11-30T19:51:46.091Z,16.02
2022-11-30T19:54:21.390Z,14.95
2022-11-30T19:56:58.025Z,15.70
2022-11-30T19:59:31.960Z,17.30
2022-11-30T20:02:05.951Z,14.75
2022-11-30T20:04:40.159Z,16.50
2022-11-30T20:07:14.980Z,14.38
2022-11-30T20:09:50.531Z,13.98
2022-11-30T20:12:24.534Z,14.50
2022-11-30T20:14:58.453Z,13.15
2022-11-30T20:17:32.244Z,16.88
2022-11-30T20:22:40.467Z,14.40
2022-11-30T20:25:15.813Z,15.48
2022-11-30T20:27:50.377Z,14.32
2022-11-30T20:30:24.388Z,14.27
2022-11-30T20:32:58.277Z,14.45
2022-11-30T20:38:05.583Z,13.73
2022-11-30T20:43:14.516Z,12.57
2022-11-30T20:45:48.465Z,12.52
2022-11-30T20:48:22.470Z,12.73
2022-11-30T20:51:28.464Z,11.30
2022-11-30T20:53:51.142Z,13.07
2022-11-30T20:56:26.713Z,11.55
2022-11-30T20:59:02.957Z,11.75
2022-11-30T21:01:37.172Z,11.18
2022-11-30T21:04:11.193Z,11.73
2022-11-30T21:06:45.900Z,10.70
2022-11-30T21:09:20.755Z,10.15
2022-11-30T21:11:56.371Z,11.13
2022-11-30T21:14:30.343Z,10.98
2022-11-30T21:17:04.192Z,11.32
2022-11-30T21:22:12.170Z,10.68
2022-11-30T21:24:46.133Z,10.35
2022-11-30T21:27:21.638Z,10.15
2022-11-30T21:29:55.527Z,9.38
2022-11-30T21:32:29.564Z,10.05
2022-11-30T21:35:03.665Z,9.80
2022-11-30T21:37:37.493Z,9.73
2022-11-30T21:42:46.948Z,10.45
2022-11-30T21:45:20.709Z,9.48
2022-11-30T21:50:28.204Z,10.00
2022-11-30T21:53:02.084Z,8.07
2022-11-30T21:55:36.719Z,9.00
2022-11-30T21:58:12.157Z,9.90
2022-11-30T22:00:46.059Z,9.32
2022-11-30T22:03:19.964Z,8.18
2022-11-30T22:06:01.356Z,9.07
2022-11-30T22:08:36.359Z,8.93
2022-11-30T22:11:12.112Z,7.88
2022-11-30T22:13:51.383Z,8.55
2022-11-30T22:16:32.585Z,8.77
2022-11-30T22:19:09.641Z,7.97
2022-11-30T22:21:49.435Z,8.43
2022-11-30T22:24:24.013Z,7.35
2022-11-30T22:26:57.825Z,7.85
2022-11-30T22:32:07.050Z,7.82
2022-11-30T22:34:40.856Z,7.75
2022-11-30T22:39:48.665Z,7.75
2022-11-30T22:42:22.822Z,7.40
2022-11-30T22:44:58.292Z,7.18
2022-11-30T22:47:32.254Z,7.82
2022-11-30T22:50:07.520Z,7.80
2022-11-30T22:53:02.406Z,7.38
2022-11-30T22:55:35.619Z,7.05
2022-11-30T22:58:09.717Z,7.20
2022-11-30T23:00:45.105Z,7.35
2022-11-30T23:03:19.089Z,8.07
2022-11-30T23:05:53.104Z,7.65
2022-11-30T23:08:27.080Z,7.10
2022-11-30T23:11:02.028Z,6.45
2022-11-30T23:13:36.411Z,7.88
2022-11-30T23:16:12.890Z,8.45
2022-11-30T23:18:49.595Z,7.10
2022-11-30T23:21:27.046Z,6.78
2022-11-30T23:24:03.569Z,6.90
2022-11-30T23:26:39.230Z,7.25
2022-11-30T23:29:14.875Z,8.27
2022-11-30T23:31:50.344Z,7.38
2022-11-30T23:34:24.303Z,6.88
2022-11-30T23:36:58.035Z,7.43
2022-11-30T23:39:31.820Z,6.38
2022-11-30T23:44:39.345Z,8.23
2022-11-30T23:49:52.426Z,6.70
2022-11-30T23:55:00.087Z,7.83
2022-11-30T23:57:34.008Z,6.78
